createdAt,value
2023-01-23T00:00:51.554Z,-0.341
2023-01-23T00:01:51.220Z,-0.368
2023-01-23T00:02:51.014Z,-0.331
2023-01-23T00:03:50.917Z,-0.341
2023-01-23T00:04:50.654Z,-0.368
2023-01-23T00:05:51.323Z,-0.339
2023-01-23T00:06:51.132Z,-0.349
2023-01-23T00:07:50.897Z,-0.341
2023-01-23T00:08:51.668Z,-0.349
2023-01-23T00:09:51.468Z,-0.355
2023-01-23T00:10:51.191Z,-0.371
2023-01-23T00:11:50.910Z,-0.336
2023-01-23T00:12:51.571Z,-0.317
2023-01-23T00:13:51.242Z,-0.331
2023-01-23T00:14:50.888Z,-0.323
2023-01-23T00:15:51.591Z,-0.331
2023-01-23T00:16:51.592Z,-0.331
2023-01-23T00:17:51.284Z,-0.352
2023-01-23T00:18:50.977Z,-0.352
2023-01-23T00:19:51.608Z,-0.301
2023-01-23T00:20:51.259Z,-0.363
2023-01-23T00:21:50.903Z,-0.325
2023-01-23T00:22:50.883Z,-0.293
2023-01-23T00:23:51.563Z,-0.336
2023-01-23T00:24:51.198Z,-0.293
2023-01-23T00:25:50.759Z,-0.280
2023-01-23T00:26:51.420Z,-0.301
2023-01-23T00:27:51.026Z,-0.256
2023-01-23T00:28:50.695Z,-0.275
2023-01-23T00:29:51.327Z,-0.296
2023-01-23T00:30:51.130Z,-0.253
2023-01-23T00:31:51.471Z,-0.267
2023-01-23T00:32:51.091Z,-0.275
2023-01-23T00:33:50.727Z,-0.304
2023-01-23T00:34:51.288Z,-0.291
2023-01-23T00:35:50.952Z,-0.336
2023-01-23T00:36:51.651Z,-0.331
2023-01-23T00:37:51.284Z,-0.267
2023-01-23T00:38:51.252Z,-0.299
2023-01-23T00:39:50.963Z,-0.280
2023-01-23T00:40:51.571Z,-0.293
2023-01-23T00:41:51.276Z,-0.293
2023-01-23T00:42:50.997Z,-0.288
2023-01-23T00:43:50.623Z,-0.283
2023-01-23T00:44:51.205Z,-0.288
2023-01-23T00:45:51.059Z,-0.301
2023-01-23T00:46:50.821Z,-0.269
2023-01-23T00:47:51.440Z,-0.293
2023-01-23T00:48:51.120Z,-0.259
2023-01-23T00:49:50.732Z,-0.307
2023-01-23T00:50:51.394Z,-0.328
2023-01-23T00:51:51.338Z,-0.304
2023-01-23T00:52:50.971Z,-0.301
2023-01-23T00:53:50.692Z,-0.272
2023-01-23T00:54:51.299Z,-0.291
2023-01-23T00:55:50.968Z,-0.293
2023-01-23T00:56:51.677Z,-0.277
2023-01-23T00:57:51.347Z,-0.293
2023-01-23T00:58:50.954Z,-0.293
2023-01-23T00:59:51.642Z,-0.280
2023-01-23T01:00:51.461Z,-0.283
2023-01-23T01:01:51.183Z,-0.304
2023-01-23T01:02:51.022Z,-0.240
2023-01-23T01:03:51.072Z,-0.267
2023-01-23T01:04:50.743Z,-0.256
2023-01-23T01:05:51.434Z,-0.253
2023-01-23T01:06:51.064Z,-0.264
2023-01-23T01:07:50.804Z,-0.304
2023-01-23T01:08:51.455Z,-0.264
2023-01-23T01:09:51.216Z,-0.280
2023-01-23T01:10:50.901Z,-0.291
2023-01-23T01:11:51.504Z,-0.267
2023-01-23T01:12:51.171Z,-0.259
2023-01-23T01:13:50.787Z,-0.240
2023-01-23T01:14:51.410Z,-0.216
2023-01-23T01:15:51.052Z,-0.181
2023-01-23T01:16:51.150Z,-0.203
2023-01-23T01:17:50.776Z,-0.176
2023-01-23T01:18:51.355Z,-0.154
2023-01-23T01:19:50.974Z,-0.125
2023-01-23T01:20:51.631Z,-0.144
2023-01-23T01:21:51.416Z,-0.117
2023-01-23T01:22:51.083Z,-0.117
2023-01-23T01:23:50.794Z,-0.117
2023-01-23T01:24:51.538Z,-0.133
2023-01-23T01:25:51.243Z,-0.104
2023-01-23T01:26:50.996Z,-0.130
2023-01-23T01:27:51.711Z,-0.112
2023-01-23T01:28:51.371Z,-0.141
2023-01-23T01:29:51.047Z,-0.146
2023-01-23T01:30:50.863Z,-0.120
2023-01-23T01:31:50.930Z,-0.117
2023-01-23T01:32:50.770Z,-0.130
2023-01-23T01:33:51.610Z,-0.122
2023-01-23T01:34:51.296Z,-0.141
2023-01-23T01:35:51.074Z,-0.090
2023-01-23T01:36:50.787Z,-0.122
2023-01-23T01:37:51.700Z,-0.144
2023-01-23T01:38:51.353Z,-0.144
2023-01-23T01:39:51.031Z,-0.173
2023-01-23T01:40:50.663Z,-0.154
2023-01-23T01:41:51.446Z,-0.165
2023-01-23T01:42:51.128Z,-0.165
2023-01-23T01:43:50.711Z,-0.154
2023-01-23T01:44:51.315Z,-0.112
2023-01-23T01:45:51.039Z,-0.120
2023-01-23T01:46:50.745Z,-0.114
2023-01-23T01:47:51.514Z,-0.085
2023-01-23T01:48:51.131Z,-0.141
2023-01-23T01:49:50.818Z,-0.152
2023-01-23T01:50:51.628Z,-0.157
2023-01-23T01:51:51.356Z,-0.171
2023-01-23T01:52:51.018Z,-0.168
2023-01-23T01:53:50.701Z,-0.208
2023-01-23T01:54:51.330Z,-0.179
2023-01-23T01:55:51.039Z,-0.160
2023-01-23T01:56:51.662Z,-0.128
2023-01-23T01:57:51.371Z,-0.133
2023-01-23T01:58:51.006Z,-0.106
2023-01-23T01:59:51.654Z,-0.146
2023-01-23T02:00:51.587Z,-0.160
2023-01-23T02:01:51.442Z,-0.149
2023-01-23T02:02:51.201Z,-0.122
2023-01-23T02:03:50.883Z,-0.106
2023-01-23T02:04:51.577Z,-0.069
2023-01-23T02:05:51.211Z,-0.050
2023-01-23T02:06:50.824Z,-0.061
2023-01-23T02:07:51.528Z,-0.032
2023-01-23T02:08:51.199Z,-0.034
2023-01-23T02:09:50.838Z,-0.050
2023-01-23T02:10:51.507Z,-0.024
2023-01-23T02:11:51.099Z,-0.026
2023-01-23T02:12:51.080Z,-0.024
2023-01-23T02:13:50.680Z,-0.005
2023-01-23T02:14:51.224Z,0.019
2023-01-23T02:15:50.832Z,-0.026
2023-01-23T02:16:51.687Z,0.011
2023-01-23T02:17:51.488Z,0.022
2023-01-23T02:18:51.096Z,0.038
2023-01-23T02:19:50.867Z,0.035
2023-01-23T02:20:51.635Z,0.086
2023-01-23T02:21:51.359Z,0.059
2023-01-23T02:22:51.555Z,0.032
2023-01-23T02:23:51.235Z,0.022
2023-01-23T02:24:50.866Z,0.032
2023-01-23T02:25:51.456Z,-0.008
2023-01-23T02:26:51.100Z,-0.040
2023-01-23T02:27:50.687Z,-0.042
2023-01-23T02:28:51.327Z,-0.082
2023-01-23T02:29:50.992Z,-0.082
2023-01-23T02:30:50.747Z,-0.066
2023-01-23T02:31:51.911Z,-0.117
2023-01-23T02:32:50.831Z,-0.088
2023-01-23T02:33:51.487Z,-0.101
2023-01-23T02:34:51.048Z,-0.098
2023-01-23T02:35:50.920Z,-0.138
2023-01-23T02:36:51.595Z,-0.117
2023-01-23T02:37:51.239Z,-0.128
2023-01-23T02:38:51.004Z,-0.144
2023-01-23T02:39:50.904Z,-0.152
2023-01-23T02:40:53.203Z,-0.149
2023-01-23T02:41:50.927Z,-0.144
2023-01-23T02:42:51.510Z,-0.128
2023-01-23T02:43:51.206Z,-0.138
2023-01-23T02:44:50.867Z,-0.154
2023-01-23T02:45:51.544Z,-0.152
2023-01-23T02:46:51.511Z,-0.152
2023-01-23T02:47:51.138Z,-0.122
2023-01-23T02:48:50.772Z,-0.088
2023-01-23T02:49:51.478Z,-0.114
2023-01-23T02:50:51.298Z,-0.130
2023-01-23T02:51:51.343Z,-0.122
2023-01-23T02:52:51.214Z,-0.136
2023-01-23T02:53:50.965Z,-0.144
2023-01-23T02:54:51.610Z,-0.173
2023-01-23T02:55:51.247Z,-0.181
2023-01-23T02:56:50.871Z,-0.138
2023-01-23T02:57:51.519Z,-0.117
2023-01-23T02:58:51.165Z,-0.112
2023-01-23T02:59:50.760Z,-0.125
2023-01-23T03:00:51.561Z,-0.112
2023-01-23T03:01:51.552Z,-0.101
2023-01-23T03:02:51.407Z,-0.085
2023-01-23T03:03:51.071Z,-0.101
2023-01-23T03:04:50.805Z,-0.048
2023-01-23T03:05:51.539Z,-0.050
2023-01-23T03:06:51.287Z,-0.040
2023-01-23T03:07:50.976Z,-0.058
2023-01-23T03:08:50.724Z,-0.045
2023-01-23T03:09:51.387Z,-0.013
2023-01-23T03:10:51.083Z,0.019
2023-01-23T03:11:50.809Z,0.016
2023-01-23T03:12:51.502Z,0.056
2023-01-23T03:13:51.114Z,0.022
2023-01-23T03:14:50.767Z,0.040
2023-01-23T03:15:51.451Z,0.080
2023-01-23T03:16:51.364Z,0.102
2023-01-23T03:17:51.198Z,0.123
2023-01-23T03:18:55.710Z,0.150
2023-01-23T03:19:51.415Z,0.158
2023-01-23T03:20:51.095Z,0.155
2023-01-23T03:21:50.746Z,0.139
2023-01-23T03:22:51.523Z,0.086
2023-01-23T03:23:51.622Z,0.086
2023-01-23T03:24:51.572Z,0.102
2023-01-23T03:25:51.376Z,0.105
2023-01-23T03:26:51.224Z,0.035
2023-01-23T03:27:51.440Z,0.070
2023-01-23T03:28:51.128Z,0.072
2023-01-23T03:29:50.947Z,0.046
2023-01-23T03:30:50.852Z,0.040
2023-01-23T03:31:51.796Z,0.027
2023-01-23T03:32:51.647Z,0.051
2023-01-23T03:33:51.336Z,0.091
2023-01-23T03:34:51.021Z,0.094
2023-01-23T03:35:50.741Z,0.113
2023-01-23T03:36:51.224Z,0.048
2023-01-23T03:37:50.772Z,0.048
2023-01-23T03:38:51.528Z,0.107
2023-01-23T03:39:51.412Z,0.158
2023-01-23T03:40:51.120Z,0.102
2023-01-23T03:41:50.733Z,0.054
2023-01-23T03:42:51.298Z,0.038
2023-01-23T03:43:54.414Z,-0.005
2023-01-23T03:44:51.150Z,-0.037
2023-01-23T03:45:51.444Z,-0.029
2023-01-23T03:46:51.167Z,-0.061
2023-01-23T03:47:50.823Z,-0.032
2023-01-23T03:48:51.449Z,-0.082
2023-01-23T03:49:51.194Z,-0.104
2023-01-23T03:50:50.933Z,-0.098
2023-01-23T03:51:50.855Z,-0.112
2023-01-23T03:52:51.645Z,-0.168
2023-01-23T03:53:51.358Z,-0.133
2023-01-23T03:54:51.177Z,-0.173
2023-01-23T03:55:51.056Z,-0.192
2023-01-23T03:56:50.648Z,-0.160
2023-01-23T03:57:51.259Z,-0.154
2023-01-23T03:58:50.911Z,-0.171
2023-01-23T03:59:51.487Z,-0.152
2023-01-23T04:00:51.264Z,-0.203
2023-01-23T04:01:51.024Z,-0.181
2023-01-23T04:02:51.703Z,-0.154
2023-01-23T04:03:51.547Z,-0.171
2023-01-23T04:04:51.203Z,-0.181
2023-01-23T04:05:51.060Z,-0.114
2023-01-23T04:06:50.724Z,-0.050
2023-01-23T04:07:51.275Z,0.011
2023-01-23T04:08:51.002Z,0.014
2023-01-23T04:09:50.749Z,0.024
2023-01-23T04:10:51.130Z,0.067
2023-01-23T04:11:50.806Z,0.022
2023-01-23T04:12:51.508Z,0.024
2023-01-23T04:13:51.139Z,0.086
2023-01-23T04:14:50.755Z,0.089
2023-01-23T04:15:51.543Z,0.032
2023-01-23T04:16:55.306Z,0.038
2023-01-23T04:17:52.940Z,0.043
2023-01-23T04:18:51.670Z,0.016
2023-01-23T04:19:51.287Z,0.131
2023-01-23T04:20:51.182Z,0.129
2023-01-23T04:21:50.782Z,0.123
2023-01-23T04:22:51.439Z,0.145
2023-01-23T04:23:51.175Z,0.171
2023-01-23T04:24:50.886Z,0.193
2023-01-23T04:25:51.762Z,0.201
2023-01-23T04:26:51.737Z,0.163
2023-01-23T04:27:51.416Z,0.187
2023-01-23T04:28:51.112Z,0.190
2023-01-23T04:29:50.740Z,0.195
2023-01-23T04:30:51.658Z,0.169
2023-01-23T04:31:51.109Z,0.177
2023-01-23T04:32:50.883Z,0.222
2023-01-23T04:33:51.612Z,0.209
2023-01-23T04:34:51.337Z,0.211
2023-01-23T04:35:51.097Z,0.203
2023-01-23T04:36:50.851Z,0.171
2023-01-23T04:37:51.483Z,0.187
2023-01-23T04:38:51.207Z,0.177
2023-01-23T04:39:50.898Z,0.195
2023-01-23T04:40:51.542Z,0.177
2023-01-23T04:41:51.281Z,0.139
2023-01-23T04:42:50.895Z,0.129
2023-01-23T04:43:51.671Z,0.139
2023-01-23T04:44:51.352Z,0.171
2023-01-23T04:45:51.053Z,0.169
2023-01-23T04:46:50.830Z,0.206
2023-01-23T04:47:51.415Z,0.161
2023-01-23T04:48:51.067Z,0.174
2023-01-23T04:49:50.708Z,0.163
2023-01-23T04:50:51.515Z,0.142
2023-01-23T04:51:51.472Z,0.129
2023-01-23T04:52:51.204Z,0.142
2023-01-23T04:53:50.871Z,0.129
2023-01-23T04:54:51.560Z,0.094
2023-01-23T04:55:51.245Z,0.107
2023-01-23T04:56:50.925Z,0.150
2023-01-23T04:57:51.568Z,0.145
2023-01-23T04:58:51.215Z,0.123
2023-01-23T04:59:50.800Z,0.115
2023-01-23T05:00:51.611Z,0.155
2023-01-23T05:01:51.530Z,0.139
2023-01-23T05:02:51.332Z,0.150
2023-01-23T05:03:51.014Z,0.145
2023-01-23T05:04:50.682Z,0.139
2023-01-23T05:05:51.422Z,0.115
2023-01-23T05:06:51.083Z,0.115
2023-01-23T05:07:51.590Z,0.086
2023-01-23T05:08:52.410Z,0.094
2023-01-23T05:09:51.283Z,0.089
2023-01-23T05:10:50.985Z,0.089
2023-01-23T05:11:50.686Z,0.080
2023-01-23T05:12:51.288Z,0.115
2023-01-23T05:13:51.142Z,0.064
2023-01-23T05:14:50.759Z,0.099
2023-01-23T05:15:51.395Z,0.064
2023-01-23T05:16:51.323Z,0.064
2023-01-23T05:17:50.886Z,0.086
2023-01-23T05:18:51.514Z,0.086
2023-01-23T05:19:51.390Z,0.094
2023-01-23T05:20:51.111Z,0.059
2023-01-23T05:21:50.746Z,0.064
2023-01-23T05:22:51.393Z,0.048
2023-01-23T05:23:51.635Z,0.107
2023-01-23T05:24:51.310Z,0.129
2023-01-23T05:25:51.177Z,0.110
2023-01-23T05:26:50.957Z,0.078
2023-01-23T05:27:50.729Z,0.102
2023-01-23T05:28:51.353Z,0.105
2023-01-23T05:29:51.043Z,0.142
2023-01-23T05:30:50.839Z,0.126
2023-01-23T05:31:51.093Z,0.139
2023-01-23T05:32:50.779Z,0.163
2023-01-23T05:33:51.363Z,0.134
2023-01-23T05:34:50.948Z,0.121
2023-01-23T05:35:51.708Z,0.086
2023-01-23T05:36:51.367Z,0.059
2023-01-23T05:37:50.971Z,0.054
2023-01-23T05:38:50.838Z,0.102
2023-01-23T05:39:51.487Z,0.089
2023-01-23T05:40:51.099Z,0.118
2023-01-23T05:41:50.696Z,0.097
2023-01-23T05:42:51.346Z,0.118
2023-01-23T05:43:51.043Z,0.113
2023-01-23T05:44:50.666Z,0.113
2023-01-23T05:45:51.296Z,0.115
2023-01-23T05:46:51.291Z,0.115
2023-01-23T05:47:50.949Z,0.102
2023-01-23T05:48:51.641Z,0.078
2023-01-23T05:49:51.324Z,0.089
2023-01-23T05:50:52.250Z,0.030
2023-01-23T05:51:51.054Z,0.038
2023-01-23T05:52:50.700Z,0.014
2023-01-23T05:53:51.356Z,0.016
2023-01-23T05:54:51.124Z,0.014
2023-01-23T05:55:50.795Z,0.016
2023-01-23T05:56:51.491Z,0.032
2023-01-23T05:57:51.187Z,0.022
2023-01-23T05:58:50.887Z,0.006
2023-01-23T05:59:51.612Z,0.014
2023-01-23T06:00:51.479Z,0.011
2023-01-23T06:01:51.239Z,0.022
2023-01-23T06:02:51.143Z,0.022
2023-01-23T06:03:51.005Z,0.032
2023-01-23T06:04:50.783Z,0.022
2023-01-23T06:05:51.664Z,0.040
2023-01-23T06:06:51.319Z,0.126
2023-01-23T06:07:50.927Z,0.171
2023-01-23T06:08:51.668Z,0.211
2023-01-23T06:09:51.259Z,0.174
2023-01-23T06:10:51.270Z,0.217
2023-01-23T06:11:50.942Z,0.262
2023-01-23T06:12:51.614Z,0.211
2023-01-23T06:13:51.375Z,0.187
2023-01-23T06:14:51.097Z,0.201
2023-01-23T06:15:50.896Z,0.198
2023-01-23T06:16:50.952Z,0.198
2023-01-23T06:17:51.636Z,0.171
2023-01-23T06:18:51.515Z,0.150
2023-01-23T06:19:51.155Z,0.142
2023-01-23T06:20:50.820Z,0.155
2023-01-23T06:21:51.448Z,0.161
2023-01-23T06:22:51.123Z,0.155
2023-01-23T06:23:50.831Z,0.150
2023-01-23T06:24:51.556Z,0.150
2023-01-23T06:25:51.643Z,0.190
2023-01-23T06:26:51.215Z,0.179
2023-01-23T06:27:50.907Z,0.171
2023-01-23T06:28:50.819Z,0.158
2023-01-23T06:29:51.386Z,0.163
2023-01-23T06:30:51.021Z,0.153
2023-01-23T06:31:51.555Z,0.166
2023-01-23T06:32:51.219Z,0.179
2023-01-23T06:33:50.858Z,0.171
2023-01-23T06:34:51.446Z,0.201
2023-01-23T06:35:51.275Z,0.150
2023-01-23T06:36:50.979Z,0.134
2023-01-23T06:37:51.580Z,0.129
2023-01-23T06:38:51.265Z,0.107
2023-01-23T06:39:50.996Z,0.078
2023-01-23T06:40:50.894Z,0.118
2023-01-23T06:41:51.527Z,0.102
2023-01-23T06:42:51.111Z,0.102
2023-01-23T06:43:50.750Z,0.097
2023-01-23T06:44:51.374Z,0.139
2023-01-23T06:45:51.009Z,0.163
2023-01-23T06:46:50.837Z,0.105
2023-01-23T06:47:51.644Z,0.134
2023-01-23T06:48:51.362Z,0.153
2023-01-23T06:49:50.948Z,0.174
2023-01-23T06:50:51.618Z,0.131
2023-01-23T06:51:51.529Z,0.209
2023-01-23T06:52:51.190Z,0.179
2023-01-23T06:53:50.866Z,0.219
2023-01-23T06:54:51.507Z,0.217
2023-01-23T06:55:50.641Z,0.193
2023-01-23T06:56:51.425Z,0.193
2023-01-23T06:57:51.019Z,0.182
2023-01-23T06:58:51.690Z,0.219
2023-01-23T06:59:51.350Z,0.227
2023-01-23T07:00:51.035Z,0.225
2023-01-23T07:01:50.860Z,0.198
2023-01-23T07:02:50.715Z,0.198
2023-01-23T07:03:51.482Z,0.177
2023-01-23T07:04:51.108Z,0.214
2023-01-23T07:05:50.735Z,0.190
2023-01-23T07:06:51.335Z,0.179
2023-01-23T07:07:51.091Z,0.203
2023-01-23T07:08:50.730Z,0.217
2023-01-23T07:09:51.324Z,0.238
2023-01-23T07:10:51.040Z,0.233
2023-01-23T07:11:50.730Z,0.241
2023-01-23T07:12:51.358Z,0.259
2023-01-23T07:13:51.065Z,0.251
2023-01-23T07:14:50.897Z,0.302
2023-01-23T07:15:51.682Z,0.267
2023-01-23T07:16:51.608Z,0.251
2023-01-23T07:17:51.252Z,0.278
2023-01-23T07:18:50.989Z,0.267
2023-01-23T07:19:50.660Z,0.270
2023-01-23T07:20:51.330Z,0.283
2023-01-23T07:21:52.934Z,0.278
2023-01-23T07:22:51.612Z,0.262
2023-01-23T07:23:51.408Z,0.278
2023-01-23T07:24:51.164Z,0.267
2023-01-23T07:25:50.962Z,0.238
2023-01-23T07:26:51.717Z,0.259
2023-01-23T07:27:51.426Z,0.262
2023-01-23T07:28:51.086Z,0.286
2023-01-23T07:29:51.099Z,0.275
2023-01-23T07:30:50.864Z,0.281
2023-01-23T07:31:51.045Z,0.262
2023-01-23T07:32:51.390Z,0.313
2023-01-23T07:33:51.086Z,0.310
2023-01-23T07:34:50.930Z,0.313
2023-01-23T07:35:51.594Z,0.353
2023-01-23T07:36:51.246Z,0.315
2023-01-23T07:37:50.956Z,0.342
2023-01-23T07:38:51.647Z,0.353
2023-01-23T07:39:51.407Z,0.377
2023-01-23T07:40:51.163Z,0.369
2023-01-23T07:41:50.987Z,0.321
2023-01-23T07:42:50.942Z,0.337
2023-01-23T07:43:50.740Z,0.369
2023-01-23T07:44:51.432Z,0.364
2023-01-23T07:45:51.147Z,0.398
2023-01-23T07:46:51.068Z,0.409
2023-01-23T07:47:51.004Z,0.390
2023-01-23T07:48:50.721Z,0.446
2023-01-23T07:49:51.472Z,0.446
2023-01-23T07:50:51.238Z,0.457
2023-01-23T07:51:51.288Z,0.454
2023-01-23T07:52:50.955Z,0.473
2023-01-23T07:53:50.727Z,0.486
2023-01-23T07:54:51.430Z,0.457
2023-01-23T07:55:51.198Z,0.465
2023-01-23T07:56:50.940Z,0.454
2023-01-23T07:57:51.694Z,0.428
2023-01-23T07:58:51.394Z,0.428
2023-01-23T07:59:50.802Z,0.468
2023-01-23T08:00:51.698Z,0.428
2023-01-23T08:01:51.799Z,0.449
2023-01-23T08:02:51.675Z,0.492
2023-01-23T08:03:51.378Z,0.465
2023-01-23T08:04:51.170Z,0.465
2023-01-23T08:05:50.935Z,0.457
2023-01-23T08:06:50.858Z,0.446
2023-01-23T08:07:57.898Z,0.428
2023-01-23T08:09:51.159Z,0.409
2023-01-23T08:10:50.955Z,0.382
2023-01-23T08:11:52.107Z,0.382
2023-01-23T08:12:50.874Z,0.380
2023-01-23T08:13:51.715Z,0.398
2023-01-23T08:14:51.538Z,0.401
2023-01-23T08:15:51.292Z,0.382
2023-01-23T08:16:51.178Z,0.374
2023-01-23T08:17:50.951Z,0.358
2023-01-23T08:18:50.745Z,0.364
2023-01-23T08:19:51.611Z,0.353
2023-01-23T08:20:51.518Z,0.291
2023-01-23T08:21:51.303Z,0.294
2023-01-23T08:22:51.147Z,0.289
2023-01-23T08:23:50.960Z,0.299
2023-01-23T08:24:50.804Z,0.326
2023-01-23T08:25:51.623Z,0.342
2023-01-23T08:26:51.435Z,0.366
2023-01-23T08:27:51.042Z,0.340
2023-01-23T08:28:50.848Z,0.337
2023-01-23T08:29:51.530Z,0.340
2023-01-23T08:30:51.371Z,0.350
2023-01-23T08:31:51.644Z,0.340
2023-01-23T08:32:51.631Z,0.385
2023-01-23T08:33:51.421Z,0.340
2023-01-23T08:34:51.119Z,0.326
2023-01-23T08:35:51.051Z,0.340
2023-01-23T08:36:50.904Z,0.342
2023-01-23T08:37:50.635Z,0.369
2023-01-23T08:38:51.458Z,0.364
2023-01-23T08:39:51.380Z,0.412
2023-01-23T08:40:51.156Z,0.404
2023-01-23T08:41:50.797Z,0.390
2023-01-23T08:42:50.851Z,0.428
2023-01-23T08:43:51.596Z,0.417
2023-01-23T08:44:51.353Z,0.433
2023-01-23T08:45:51.168Z,0.444
2023-01-23T08:46:51.061Z,0.457
2023-01-23T08:47:50.821Z,0.468
2023-01-23T08:48:51.632Z,0.476
2023-01-23T08:49:51.622Z,0.494
2023-01-23T08:50:51.392Z,0.505
2023-01-23T08:51:51.227Z,0.510
2023-01-23T08:52:50.995Z,0.583
2023-01-23T08:53:50.786Z,0.585
2023-01-23T08:54:51.463Z,0.631
2023-01-23T08:55:51.239Z,0.708
2023-01-23T08:56:51.082Z,0.769
2023-01-23T08:57:50.797Z,0.785
2023-01-23T08:58:51.490Z,0.839
2023-01-23T08:59:51.262Z,0.876
2023-01-23T09:00:51.098Z,0.948
2023-01-23T09:01:51.001Z,0.855
2023-01-23T09:02:50.983Z,0.930
2023-01-23T09:03:50.911Z,0.914
2023-01-23T09:04:51.664Z,0.930
2023-01-23T09:05:51.504Z,0.972
2023-01-23T09:06:51.233Z,0.970
2023-01-23T09:07:51.043Z,1.061
2023-01-23T09:08:52.348Z,0.967
2023-01-23T09:09:51.120Z,1.002
2023-01-23T09:10:50.939Z,1.050
2023-01-23T09:11:51.603Z,1.098
2023-01-23T09:12:51.400Z,1.074
2023-01-23T09:13:52.959Z,1.087
2023-01-23T09:14:51.480Z,1.149
2023-01-23T09:15:51.402Z,1.242
2023-01-23T09:16:51.497Z,1.197
2023-01-23T09:17:51.263Z,1.165
2023-01-23T09:18:51.193Z,1.117
2023-01-23T09:19:50.976Z,1.165
2023-01-23T09:20:50.771Z,1.173
2023-01-23T09:21:51.339Z,1.159
2023-01-23T09:22:51.045Z,1.266
2023-01-23T09:23:50.831Z,1.266
2023-01-23T09:24:51.460Z,1.149
2023-01-23T09:25:51.236Z,1.239
2023-01-23T09:26:51.006Z,1.376
2023-01-23T09:27:50.899Z,1.392
2023-01-23T09:28:51.624Z,1.416
2023-01-23T09:29:51.315Z,1.477
2023-01-23T09:30:51.110Z,1.418
2023-01-23T09:31:50.946Z,1.424
2023-01-23T09:32:50.836Z,1.496
2023-01-23T09:33:51.637Z,1.605
2023-01-23T09:34:51.532Z,1.827
2023-01-23T09:35:51.530Z,1.744
2023-01-23T09:36:56.112Z,1.683
2023-01-23T09:37:50.884Z,1.517
2023-01-23T09:38:51.552Z,1.490
2023-01-23T09:39:51.314Z,1.304
2023-01-23T09:40:51.062Z,1.306
2023-01-23T09:41:50.761Z,1.175
2023-01-23T09:42:50.940Z,1.234
2023-01-23T09:43:50.894Z,1.357
2023-01-23T09:44:51.611Z,1.453
2023-01-23T09:45:51.962Z,1.555
2023-01-23T09:46:50.963Z,1.493
2023-01-23T09:47:53.325Z,1.360
2023-01-23T09:48:51.287Z,1.304
2023-01-23T09:49:51.347Z,1.306
2023-01-23T09:50:51.224Z,1.370
2023-01-23T09:51:51.103Z,1.290
2023-01-23T09:52:50.972Z,1.213
2023-01-23T09:53:51.722Z,1.263
2023-01-23T09:54:51.515Z,1.250
2023-01-23T09:55:51.272Z,1.269
2023-01-23T09:56:50.943Z,1.250
2023-01-23T09:57:51.731Z,1.400
2023-01-23T09:58:51.506Z,1.496
2023-01-23T10:00:00.042Z,1.597
2023-01-23T10:00:51.320Z,1.675
2023-01-23T10:01:51.480Z,1.645
2023-01-23T10:02:51.524Z,1.763
2023-01-23T10:03:51.355Z,1.907
2023-01-23T10:04:51.159Z,1.923
2023-01-23T10:05:50.887Z,1.784
2023-01-23T10:06:51.589Z,1.621
2023-01-23T10:07:51.323Z,1.563
2023-01-23T10:08:50.990Z,1.522
2023-01-23T10:09:50.755Z,1.333
2023-01-23T10:10:50.710Z,1.354
2023-01-23T10:11:51.416Z,1.424
2023-01-23T10:12:51.143Z,1.426
2023-01-23T10:13:51.131Z,1.413
2023-01-23T10:14:52.952Z,1.506
2023-01-23T10:15:52.820Z,1.536
2023-01-23T10:16:56.435Z,1.517
2023-01-23T10:17:51.232Z,1.458
2023-01-23T10:18:51.168Z,1.432
2023-01-23T10:19:50.933Z,1.309
2023-01-23T10:20:50.892Z,1.290
2023-01-23T10:21:50.808Z,1.234
2023-01-23T10:22:51.595Z,1.261
2023-01-23T10:23:51.328Z,1.309
2023-01-23T10:24:56.085Z,1.432
2023-01-23T10:25:50.840Z,1.592
2023-01-23T10:26:51.511Z,1.760
2023-01-23T10:27:51.193Z,1.669
2023-01-23T10:28:51.031Z,1.747
2023-01-23T10:29:51.716Z,1.771
2023-01-23T10:30:51.687Z,1.744
2023-01-23T10:31:51.148Z,1.776
2023-01-23T10:32:51.087Z,1.741
2023-01-23T10:33:50.812Z,1.894
2023-01-23T10:34:50.928Z,1.827
2023-01-23T10:35:50.742Z,1.856
2023-01-23T10:36:56.528Z,1.693
2023-01-23T10:37:51.270Z,1.757
2023-01-23T10:38:51.030Z,1.741
2023-01-23T10:39:51.143Z,1.886
2023-01-23T10:40:51.082Z,2.011
2023-01-23T10:41:54.251Z,1.934
2023-01-23T10:42:51.360Z,1.891
2023-01-23T10:43:51.187Z,1.843
2023-01-23T10:44:50.860Z,1.944
2023-01-23T10:45:50.729Z,2.035
2023-01-23T10:46:53.835Z,2.027
2023-01-23T10:47:54.859Z,2.097
2023-01-23T10:48:50.734Z,2.083
2023-01-23T10:49:51.599Z,2.000
2023-01-23T10:50:51.612Z,2.097
2023-01-23T10:51:51.575Z,2.081
2023-01-23T10:52:51.247Z,2.195
2023-01-23T10:53:51.071Z,2.011
2023-01-23T10:54:51.616Z,2.340
2023-01-23T10:55:51.475Z,2.460
2023-01-23T10:56:51.268Z,2.639
2023-01-23T10:57:51.028Z,2.874
2023-01-23T10:58:50.764Z,3.157
2023-01-23T10:59:50.725Z,3.413
2023-01-23T11:00:51.578Z,3.325
2023-01-23T11:01:57.247Z,2.916
2023-01-23T11:02:50.987Z,2.820
2023-01-23T11:03:50.899Z,2.900
2023-01-23T11:04:50.767Z,2.580
2023-01-23T11:05:56.442Z,2.628
2023-01-23T11:06:51.207Z,2.679
2023-01-23T11:07:50.939Z,2.780
2023-01-23T11:08:51.631Z,2.970
2023-01-23T11:09:51.323Z,2.930
2023-01-23T11:10:51.206Z,3.149
2023-01-23T11:11:50.939Z,2.866
2023-01-23T11:12:51.757Z,2.943
2023-01-23T11:13:51.458Z,2.946
2023-01-23T11:14:51.319Z,3.002
2023-01-23T11:15:51.219Z,3.197
2023-01-23T11:16:51.116Z,2.911
2023-01-23T11:17:50.920Z,2.607
2023-01-23T11:18:50.784Z,2.772
2023-01-23T11:19:51.276Z,2.612
2023-01-23T11:20:51.032Z,2.668
2023-01-23T11:21:50.995Z,2.671
2023-01-23T11:22:50.969Z,2.553
2023-01-23T11:23:50.930Z,2.478
2023-01-23T11:24:55.602Z,2.430
2023-01-23T11:25:51.341Z,2.462
2023-01-23T11:26:53.016Z,2.567
2023-01-23T11:27:50.803Z,2.668
2023-01-23T11:28:51.570Z,2.564
2023-01-23T11:29:51.602Z,2.502
2023-01-23T11:30:56.089Z,2.556
2023-01-23T11:32:51.655Z,2.342
2023-01-23T11:33:51.387Z,2.302
2023-01-23T11:34:51.316Z,2.209
2023-01-23T11:35:53.603Z,2.259
2023-01-23T11:36:51.533Z,2.187
2023-01-23T11:37:51.352Z,2.233
2023-01-23T11:38:53.157Z,2.313
2023-01-23T11:39:51.047Z,2.388
2023-01-23T11:40:50.971Z,2.425
2023-01-23T11:41:50.991Z,2.465
2023-01-23T11:42:50.849Z,2.478
2023-01-23T11:43:51.574Z,2.527
2023-01-23T11:44:56.375Z,2.644
2023-01-23T11:45:51.458Z,2.895
2023-01-23T11:46:51.476Z,2.980
2023-01-23T11:47:51.319Z,2.994
2023-01-23T11:48:50.987Z,3.010
2023-01-23T11:49:51.717Z,3.194
2023-01-23T11:50:55.702Z,3.181
2023-01-23T11:52:51.387Z,3.175
2023-01-23T11:53:55.998Z,3.242
2023-01-23T11:54:50.851Z,3.197
2023-01-23T11:55:52.548Z,3.167
2023-01-23T11:56:51.318Z,3.239
2023-01-23T11:57:51.232Z,3.077
2023-01-23T11:58:56.108Z,3.237
2023-01-23T11:59:50.883Z,3.226
2023-01-23T12:00:50.659Z,3.397
2023-01-23T12:02:02.216Z,3.298
2023-01-23T12:03:51.205Z,3.461
2023-01-23T12:04:51.435Z,3.264
2023-01-23T12:05:51.371Z,3.418
2023-01-23T12:07:51.055Z,3.408
2023-01-23T12:08:50.890Z,3.568
2023-01-23T12:09:50.774Z,3.448
2023-01-23T12:10:50.795Z,3.565
2023-01-23T12:11:51.542Z,3.333
2023-01-23T12:12:51.398Z,3.197
2023-01-23T12:13:51.199Z,3.405
2023-01-23T12:14:51.042Z,3.426
2023-01-23T12:15:50.957Z,3.477
2023-01-23T12:16:51.108Z,3.298
2023-01-23T12:17:50.939Z,3.392
2023-01-23T12:18:50.773Z,3.239
2023-01-23T12:19:51.634Z,3.547
2023-01-23T12:20:51.389Z,3.664
2023-01-23T12:21:51.178Z,3.349
2023-01-23T12:22:50.999Z,3.440
2023-01-23T12:23:50.848Z,3.389
2023-01-23T12:24:51.533Z,3.317
2023-01-23T12:25:51.206Z,3.413
2023-01-23T12:26:51.054Z,3.472
2023-01-23T12:27:50.844Z,3.611
2023-01-23T12:28:51.524Z,3.563
2023-01-23T12:29:51.323Z,3.555
2023-01-23T12:30:50.983Z,3.485
2023-01-23T12:31:51.582Z,3.525
2023-01-23T12:32:51.615Z,3.517
2023-01-23T12:33:51.495Z,3.528
2023-01-23T12:34:51.195Z,3.464
2023-01-23T12:35:50.949Z,3.611
2023-01-23T12:37:07.151Z,3.448
2023-01-23T12:39:02.267Z,3.440
2023-01-23T12:40:01.994Z,3.565
2023-01-23T12:41:02.590Z,3.482
2023-01-23T12:42:02.407Z,3.600
2023-01-23T12:43:02.216Z,3.701
2023-01-23T12:44:01.950Z,3.621
2023-01-23T12:45:02.688Z,3.779
2023-01-23T12:46:02.072Z,3.883
2023-01-23T12:47:01.828Z,3.846
2023-01-23T12:48:02.617Z,3.990
2023-01-23T12:49:02.497Z,3.942
2023-01-23T12:50:02.238Z,3.952
2023-01-23T12:51:02.490Z,4.083
2023-01-23T12:52:02.599Z,3.758
2023-01-23T12:53:02.559Z,3.867